Terminal Aerodrome Forecast
Issued by NWS Charleston, WV

Current Version | Previous Version | Graphics & Text | Print | Product List | Glossary On
Versions: 1 2 3 4 5 6 7 8 9 10 11 12 13 14 15 16 17 18 19 20 21 22 23 24 25 26
000
FTUS41 KRLX 280900 AAA
TAFHTS
TAF AMD
KHTS 280905Z 2809/2906 26008KT P6SM SCT080
     FM281500 28010KT P6SM BKN030
     FM281700 29010G15KT P6SM BKN040
     FM290000 32006KT P6SM SCT060
     FM290300 VRB03KT 5SM BR SCT150=

USA.gov is the U.S. government's official web portal to all federal, state and local government web resources and services.